Open Full Screen Window  High Contrast Mode
Wind Gusting 00 knots
04
March 03, 2015 1:12 AM CST
Weather Information
Wind Direction
  090 °
Wind Speed
  04 kt (5 mph)
Wind Gust
  00 kt (0 mph)
Altimeter
30.25 in
Visibility
10 SM
Temperature
-05° C
23° F
Dewpoint
-08° C
18° F
Humidity
80%
Sky Condition
Overcast @ 9,000 ft
VFR

METAR KAXV 030712Z AUTO 09004KT 10SM OVC090 M05/M08 A3025 RMK AO2

*Background is not an actual portrayal of the airport.